Time;durP1;ratioP1;P1;durP2;ratioP2;P2;SDS_P1;SDS_P2;PMS_P1;PMS_P2;Temp;Humidity;BMP_temperature;BMP_pressure;BME280_temperature;BME280_humidity;BME280_pressure;Samples;Min_cycle;Max_cycle;Signal;HPM_P1;HPM_P2
2023/03/23 00:01:05;;;;;;;6.63;3.47;;;;;;;-145.18;100.00;46732.66;6152667;23;20037;-75
2023/03/23 00:03:34;;;;;;;7.57;3.07;;;;;;;-145.18;100.00;46734.63;6152663;23;20008;-75
2023/03/23 00:06:02;;;;;;;9.00;2.80;;;;;;;-145.18;100.00;46728.75;6152963;23;20014;-75
2023/03/23 00:08:28;;;;;;;6.50;3.23;;;;;;;-145.18;100.00;46728.75;6150689;23;20449;-75
2023/03/23 00:10:56;;;;;;;5.47;2.93;;;;;;;-145.18;100.00;46732.66;6151575;23;20081;-74
2023/03/23 00:13:26;;;;;;;6.73;2.83;;;;;;;-145.18;100.00;46732.66;6152762;23;20036;-74
2023/03/23 00:15:52;;;;;;;6.03;3.17;;;;;;;-145.18;100.00;46736.56;6152983;23;20001;-74
2023/03/23 00:18:23;;;;;;;6.17;2.60;;;;;;;-145.18;100.00;46724.84;6152386;23;20012;-74
2023/03/23 00:20:56;;;;;;;6.07;2.70;;;;;;;-145.18;100.00;46734.63;6150963;23;20398;-74
2023/03/23 00:23:25;;;;;;;7.07;2.93;;;;;;;-145.18;100.00;46728.75;6152404;23;20016;-74
2023/03/23 00:25:53;;;;;;;11.70;2.80;;;;;;;-145.18;100.00;46732.66;6152700;23;20021;-74
2023/03/23 00:28:26;;;;;;;5.43;2.93;;;;;;;-145.18;100.00;46736.56;6152527;23;20005;-74
2023/03/23 00:30:57;;;;;;;5.43;2.20;;;;;;;-145.18;100.00;46734.63;6152600;23;20005;-74
2023/03/23 00:33:28;;;;;;;9.23;3.13;;;;;;;-145.18;100.00;46736.56;6152723;23;20017;-74
2023/03/23 00:35:55;;;;;;;4.90;2.53;;;;;;;-145.18;100.00;46728.75;6152518;23;20080;-74
2023/03/23 00:38:24;;;;;;;5.73;3.00;;;;;;;-145.18;100.00;46726.81;6152442;23;20063;-74
2023/03/23 00:40:50;;;;;;;4.90;2.80;;;;;;;-145.18;100.00;46732.66;6152654;23;20020;-74
2023/03/23 00:43:17;;;;;;;4.93;2.93;;;;;;;-145.18;100.00;46728.75;6152145;23;20010;-74
2023/03/23 00:45:52;;;;;;;13.17;3.40;;;;;;;-145.18;100.00;46734.63;6152561;23;20439;-74
2023/03/23 00:48:23;;;;;;;9.60;3.20;;;;;;;-145.18;100.00;46726.81;6152592;23;20010;-74
2023/03/23 00:50:49;;;;;;;7.37;3.03;;;;;;;-145.18;100.00;46736.56;6152325;23;20152;-74
2023/03/23 00:53:16;;;;;;;6.23;3.40;;;;;;;-145.18;100.00;46732.66;6152425;23;20012;-74
2023/03/23 00:55:42;;;;;;;7.57;2.87;;;;;;;-145.18;100.00;46732.66;6152209;23;20367;-74
2023/03/23 00:58:09;;;;;;;6.33;3.10;;;;;;;-145.18;100.00;46728.75;6152320;23;20067;-74
2023/03/23 01:00:35;;;;;;;5.23;3.07;;;;;;;-145.18;100.00;46734.63;6152241;23;20009;-75
2023/03/23 01:03:00;;;;;;;8.10;3.10;;;;;;;-145.18;100.00;46732.66;6152420;23;20064;-74
2023/03/23 01:05:31;;;;;;;6.43;2.70;;;;;;;-145.18;100.00;46734.63;6152046;23;20104;-74
2023/03/23 01:07:57;;;;;;;8.43;3.53;;;;;;;-145.18;100.00;46732.66;6152427;23;20037;-74
2023/03/23 01:10:24;;;;;;;8.33;3.20;;;;;;;-145.18;100.00;46734.63;6152117;23;20009;-75
2023/03/23 01:12:50;;;;;;;5.43;2.97;;;;;;;-145.18;100.00;46732.66;6150814;23;20005;-74
2023/03/23 01:15:17;;;;;;;8.47;3.57;;;;;;;-145.18;100.00;46724.84;6152172;23;20002;-74
2023/03/23 01:17:43;;;;;;;5.27;3.17;;;;;;;-145.18;100.00;46734.63;6152349;23;20013;-74
2023/03/23 01:20:10;;;;;;;4.20;2.77;;;;;;;-145.18;100.00;46726.81;6151887;23;20009;-74
2023/03/23 01:22:37;;;;;;;5.53;3.07;;;;;;;-145.18;100.00;46726.81;6152309;23;20005;-74
2023/03/23 01:25:02;;;;;;;9.53;4.20;;;;;;;-145.18;100.00;46728.75;6151699;23;20534;-74
2023/03/23 01:27:28;;;;;;;9.87;3.33;;;;;;;-145.18;100.00;46722.91;6150351;23;20014;-74
2023/03/23 01:29:53;;;;;;;8.40;3.27;;;;;;;-145.18;100.00;46728.75;6152218;23;20432;-74
2023/03/23 01:32:18;;;;;;;8.67;3.30;;;;;;;-145.18;100.00;46726.81;6151888;23;20134;-74
2023/03/23 01:34:44;;;;;;;8.57;3.67;;;;;;;-145.18;100.00;46732.66;6150697;23;20017;-74
2023/03/23 01:37:09;;;;;;;7.07;3.20;;;;;;;-145.18;100.00;46728.75;6151951;23;20093;-74
2023/03/23 01:39:38;;;;;;;5.80;3.10;;;;;;;-145.18;100.00;46736.56;6152214;23;20359;-74
2023/03/23 01:42:04;;;;;;;5.20;3.23;;;;;;;-145.18;100.00;46726.81;6151966;23;20016;-74
2023/03/23 01:44:30;;;;;;;6.10;2.80;;;;;;;-145.18;100.00;46734.63;6151953;23;20006;-74
2023/03/23 01:46:55;;;;;;;5.97;2.83;;;;;;;-145.18;100.00;46734.63;6152125;23;20064;-74
2023/03/23 01:49:46;;;;;;;5.90;2.73;;;;;;;-145.18;100.00;46734.63;6152294;23;20349;-74
2023/03/23 01:52:16;;;;;;;4.23;3.03;;;;;;;-145.18;100.00;46734.63;6152139;23;20001;-74
2023/03/23 01:54:44;;;;;;;5.60;3.20;;;;;;;-145.18;100.00;46732.66;6151841;23;20006;-74
2023/03/23 01:57:15;;;;;;;6.27;2.77;;;;;;;-145.18;100.00;46736.56;6152479;23;20002;-74
2023/03/23 01:59:44;;;;;;;3.87;3.00;;;;;;;-145.18;100.00;46736.56;6152098;23;20007;-74
2023/03/23 02:02:10;;;;;;;5.63;3.17;;;;;;;-145.18;100.00;46732.66;6102046;23;20010;-74
2023/03/23 02:04:37;;;;;;;5.53;3.33;;;;;;;-145.18;100.00;46734.63;6151925;23;20077;-74
2023/03/23 02:07:03;;;;;;;8.53;3.33;;;;;;;-145.18;100.00;46734.63;6153342;23;20517;-75
2023/03/23 02:09:28;;;;;;;6.33;3.40;;;;;;;-145.18;100.00;46734.63;6153870;23;20096;-74
2023/03/23 02:11:54;;;;;;;5.77;3.60;;;;;;;-145.18;100.00;46734.63;6153916;23;20081;-75
2023/03/23 02:14:21;;;;;;;6.30;3.13;;;;;;;-145.18;100.00;46728.75;6154028;23;20009;-75
2023/03/23 02:16:49;;;;;;;6.83;3.13;;;;;;;-145.18;100.00;46732.66;6154202;23;20009;-74
2023/03/23 02:19:32;;;;;;;4.33;2.73;;;;;;;-145.18;100.00;46728.75;6153766;23;20013;-74
2023/03/23 02:22:19;;;;;;;4.57;2.60;;;;;;;-145.18;100.00;46734.63;6153699;23;20080;-74
2023/03/23 02:25:15;;;;;;;6.20;2.83;;;;;;;-145.18;100.00;46720.94;6154243;23;20035;-75
2023/03/23 02:28:05;;;;;;;4.88;2.88;;;;;;;-145.18;100.00;46717.03;6154133;23;20005;-74
2023/03/23 02:30:31;;;;;;;9.57;2.80;;;;;;;-145.18;100.00;46705.31;6154540;23;20335;-74
2023/03/23 02:33:27;;;;;;;7.40;3.50;;;;;;;-145.18;100.00;46691.66;6153515;23;20001;-75
2023/03/23 02:36:12;;;;;;;8.35;2.83;;;;;;;-145.18;100.00;46677.97;6153954;23;20009;-74
2023/03/23 02:38:54;;;;;;;5.50;2.80;;;;;;;-145.18;100.00;46674.06;6153961;23;20450;-74
2023/03/23 02:41:27;;;;;;;5.33;2.77;;;;;;;-145.18;100.00;46662.34;6153821;23;20300;-74
2023/03/23 02:43:54;;;;;;;13.17;3.20;;;;;;;-145.18;100.00;46648.69;6153900;23;20025;-74
2023/03/23 02:46:21;;;;;;;8.97;3.03;;;;;;;-145.18;100.00;46648.69;6152079;23;20008;-74
2023/03/23 02:48:51;;;;;;;6.37;2.23;;;;;;;-145.18;100.00;46660.41;6153671;23;20312;-74
2023/03/23 02:51:19;;;;;;;8.40;2.80;;;;;;;-145.18;100.00;46679.94;6153740;23;20029;-74
2023/03/23 02:53:46;;;;;;;5.80;2.47;;;;;;;-145.18;100.00;46679.94;6154066;23;20347;-74
2023/03/23 02:56:13;;;;;;;7.90;2.50;;;;;;;-145.18;100.00;46660.41;6153761;23;20002;-74
2023/03/23 02:58:39;;;;;;;7.93;2.40;;;;;;;-145.18;100.00;46660.41;6153604;23;20020;-74
2023/03/23 03:01:35;;;;;;;7.10;2.00;;;;;;;-145.18;100.00;46660.41;6153299;23;20017;-74
2023/03/23 03:04:16;;;;;;;6.22;2.40;;;;;;;-145.18;100.00;46660.41;6153111;23;20354;-74
2023/03/23 03:07:03;;;;;;;6.23;2.27;;;;;;;-145.18;100.00;46660.41;6154103;23;20029;-74
2023/03/23 03:09:46;;;;;;;4.67;2.40;;;;;;;-145.18;100.00;46660.41;6153959;23;20044;-74
2023/03/23 03:12:31;;;;;;;6.80;2.03;;;;;;;-145.18;100.00;46660.41;6152875;23;20001;-74
2023/03/23 03:15:15;;;;;;;5.40;2.20;;;;;;;-145.18;100.00;46660.41;6154022;23;20005;-74
2023/03/23 03:17:52;;;;;;;5.00;2.20;;;;;;;-145.18;100.00;46660.41;6153650;23;20064;-74
2023/03/23 03:20:18;;;;;;;8.63;2.20;;;;;;;-145.18;100.00;46660.41;6153467;23;20327;-74
2023/03/23 03:22:46;;;;;;;5.40;1.77;;;;;;;-145.18;100.00;46660.41;6153630;23;20076;-75
2023/03/23 03:25:15;;;;;;;6.80;2.27;;;;;;;-145.18;100.00;46660.41;6153359;23;20005;-74
2023/03/23 03:27:43;;;;;;;14.70;2.80;;;;;;;-145.18;100.00;46660.41;6153525;23;20039;-74
2023/03/23 03:30:14;;;;;;;4.90;1.90;;;;;;;-145.18;100.00;46660.41;6153471;23;20085;-74
2023/03/23 03:32:50;;;;;;;11.93;1.93;;;;;;;-145.18;100.00;46652.59;6153828;23;20009;-74
2023/03/23 03:35:16;;;;;;;;;;;;;;;-145.18;100.00;46656.50;6153677;23;20490;-74
2023/03/23 03:37:42;;;;;;;6.47;2.00;;;;;;;-145.18;100.00;46658.44;6153408;23;19913;-74
2023/03/23 03:40:11;;;;;;;12.10;1.97;;;;;;;-145.18;100.00;46652.59;6153045;23;20001;-74
2023/03/23 03:42:39;;;;;;;5.17;1.30;;;;;;;-145.18;100.00;46658.44;6153366;23;19998;-74
2023/03/23 03:45:05;;;;;;;5.97;1.57;;;;;;;-145.18;100.00;46656.50;6153357;23;20001;-74
2023/03/23 03:47:31;;;;;;;7.67;2.10;;;;;;;-145.18;100.00;46658.44;6153198;23;20009;-74
2023/03/23 03:49:56;;;;;;;6.40;2.00;;;;;;;-145.18;100.00;46660.41;6151854;23;20068;-74
2023/03/23 03:52:21;;;;;;;5.90;1.50;;;;;;;-145.18;100.00;46660.41;6152822;23;20011;-74
2023/03/23 03:54:47;;;;;;;15.33;2.43;;;;;;;-145.18;100.00;46660.41;6153702;23;20009;-74
2023/03/23 03:57:12;;;;;;;7.77;1.73;;;;;;;-145.18;100.00;46658.44;6153325;23;20443;-74
2023/03/23 03:59:38;;;;;;;5.80;1.50;;;;;;;-145.18;100.00;46660.41;6153228;23;20013;-74
2023/03/23 04:02:03;;;;;;;4.67;1.30;;;;;;;-145.18;100.00;46660.41;6152871;23;20017;-74
2023/03/23 04:04:29;;;;;;;7.80;1.80;;;;;;;-145.18;100.00;46656.50;6151348;23;20016;-74
2023/03/23 04:06:54;;;;;;;7.57;1.80;;;;;;;-145.18;100.00;46660.41;6153279;23;20033;-74
2023/03/23 04:09:21;;;;;;;7.97;1.67;;;;;;;-145.18;100.00;46660.41;6151081;23;20009;-74
2023/03/23 04:11:46;;;;;;;8.97;1.70;;;;;;;-145.18;100.00;46660.41;6153564;23;20020;-74
2023/03/23 04:14:12;;;;;;;10.17;1.50;;;;;;;-145.18;100.00;46660.41;6152955;23;20064;-75
2023/03/23 04:16:37;;;;;;;12.03;2.00;;;;;;;-145.18;100.00;46633.06;6152817;23;20505;-74
2023/03/23 04:19:03;;;;;;;9.00;2.00;;;;;;;-145.18;100.00;46636.94;6152367;23;20039;-74
2023/03/23 04:21:29;;;;;;;9.43;1.60;;;;;;;-145.18;100.00;46660.41;6126971;23;20438;-74
2023/03/23 04:23:58;;;;;;;7.23;1.50;;;;;;;-145.18;100.00;46660.41;6152247;23;20057;-74
2023/03/23 04:26:30;;;;;;;9.27;1.83;;;;;;;-145.18;100.00;46660.41;6153176;23;20405;-74
2023/03/23 04:28:56;;;;;;;7.33;1.90;;;;;;;-145.18;100.00;46660.41;6152595;23;20028;-74
2023/03/23 04:31:24;;;;;;;8.73;2.50;;;;;;;-145.18;100.00;46635.00;6152671;23;20327;-74
2023/03/23 04:33:52;;;;;;;14.93;2.07;;;;;;;-145.18;100.00;46660.41;6152788;23;20084;-74
2023/03/23 04:36:17;;;;;;;10.07;1.73;;;;;;;-145.18;100.00;46660.41;6152630;23;20017;-74
2023/03/23 04:38:43;;;;;;;7.23;2.10;;;;;;;-145.18;100.00;46660.41;6152690;23;20075;-74
2023/03/23 04:41:09;;;;;;;7.57;1.30;;;;;;;-145.18;100.00;46660.41;6152458;23;20009;-74
2023/03/23 04:43:41;;;;;;;8.60;1.83;;;;;;;-145.18;100.00;46660.41;6152407;23;20009;-74
2023/03/23 04:46:08;;;;;;;10.47;1.87;;;;;;;-145.18;100.00;46633.06;6152551;23;20005;-74
2023/03/23 04:48:34;;;;;;;10.97;2.00;;;;;;;-145.18;100.00;46633.06;6152328;23;20014;-75
2023/03/23 04:51:04;;;;;;;10.03;1.70;;;;;;;-145.18;100.00;46633.06;6152522;23;20450;-74
2023/03/23 04:53:30;;;;;;;9.17;1.60;;;;;;;-145.18;100.00;46660.41;6152620;23;20005;-74
2023/03/23 04:55:56;;;;;;;10.80;1.90;;;;;;;-145.18;100.00;46636.94;6152492;23;20009;-74
2023/03/23 04:58:24;;;;;;;8.90;2.40;;;;;;;-145.18;100.00;46635.00;6151927;23;20013;-74
2023/03/23 05:00:49;;;;;;;7.40;1.63;;;;;;;-145.18;100.00;46636.94;6152460;23;20422;-74
2023/03/23 05:03:18;;;;;;;17.70;1.90;;;;;;;-145.18;100.00;46636.94;6151746;23;20020;-74
2023/03/23 05:05:51;;;;;;;8.67;1.57;;;;;;;-145.18;100.00;46635.00;6152434;23;20029;-74
2023/03/23 05:08:18;;;;;;;9.97;1.90;;;;;;;-145.18;100.00;46660.41;6151489;23;20313;-74
2023/03/23 05:10:51;;;;;;;11.47;2.20;;;;;;;-145.18;100.00;46660.41;6151402;23;20037;-74
2023/03/23 05:13:16;;;;;;;6.27;1.30;;;;;;;-145.18;100.00;46660.41;6150871;23;20006;-74
2023/03/23 05:15:41;;;;;;;6.10;1.23;;;;;;;-145.18;100.00;46660.41;6150983;23;20439;-74
2023/03/23 05:18:09;;;;;;;9.17;2.10;;;;;;;-145.18;100.00;46660.41;6151587;23;20072;-74
2023/03/23 05:20:34;;;;;;;9.10;1.43;;;;;;;-145.18;100.00;46660.41;6152659;23;20013;-74
2023/03/23 05:23:00;;;;;;;8.77;2.10;;;;;;;-145.18;100.00;46660.41;6152423;23;20020;-74
2023/03/23 05:25:26;;;;;;;10.67;1.80;;;;;;;-145.18;100.00;46660.41;6152088;23;20335;-74
2023/03/23 05:27:52;;;;;;;12.93;1.93;;;;;;;-145.18;100.00;46660.41;6151882;23;20017;-74
2023/03/23 05:30:19;;;;;;;7.70;1.53;;;;;;;-145.18;100.00;46660.41;6151506;23;20012;-74
2023/03/23 05:32:45;;;;;;;7.20;1.47;;;;;;;-145.18;100.00;46660.41;6151843;23;20014;-74
2023/03/23 05:35:12;;;;;;;9.83;2.17;;;;;;;-145.18;100.00;46660.41;6151667;23;20018;-74
2023/03/23 05:37:38;;;;;;;8.30;2.43;;;;;;;-145.18;100.00;46660.41;6151573;23;20002;-74
2023/03/23 05:40:06;;;;;;;7.57;1.90;;;;;;;-145.18;100.00;46660.41;6151615;23;20511;-75
2023/03/23 05:42:34;;;;;;;7.73;1.70;;;;;;;-145.18;100.00;46660.41;6152210;23;20041;-74
2023/03/23 05:45:00;;;;;;;10.77;1.60;;;;;;;-145.18;100.00;46660.41;6151707;23;20375;-74
2023/03/23 05:47:26;;;;;;;10.23;1.83;;;;;;;-145.18;100.00;46660.41;6152131;23;20002;-75
2023/03/23 05:49:54;;;;;;;7.47;1.73;;;;;;;-145.18;100.00;46660.41;6151216;23;20097;-75
2023/03/23 05:52:20;;;;;;;8.67;1.97;;;;;;;-145.18;100.00;46654.53;6149992;23;20090;-74
2023/03/23 05:54:46;;;;;;;10.77;2.30;;;;;;;-145.18;100.00;46660.41;6150957;23;20037;-74
2023/03/23 05:57:11;;;;;;;12.63;2.70;;;;;;;-145.18;100.00;46654.53;6150863;23;20041;-74
2023/03/23 05:59:37;;;;;;;12.63;2.13;;;;;;;-145.18;100.00;46656.50;6150149;23;20006;-74
2023/03/23 06:02:04;;;;;;;9.57;1.63;;;;;;;-145.18;100.00;46650.63;6150345;23;20085;-75
2023/03/23 06:04:29;;;;;;;7.83;1.93;;;;;;;-145.18;100.00;46660.41;6150408;23;20010;-74
2023/03/23 06:06:55;;;;;;;13.93;2.17;;;;;;;-145.18;100.00;46658.44;6150821;23;20825;-75
2023/03/23 06:09:23;;;;;;;12.10;2.47;;;;;;;-145.18;100.00;46650.63;6150093;23;20055;-75
2023/03/23 06:11:49;;;;;;;13.93;2.73;;;;;;;-145.18;100.00;46660.41;6150653;23;20010;-76
2023/03/23 06:14:14;;;;;;;10.77;2.13;;;;;;;-145.18;100.00;46660.41;6149932;23;20005;-76
2023/03/23 06:16:40;;;;;;;10.13;1.73;;;;;;;-145.18;100.00;46660.41;6150703;23;20016;-75
2023/03/23 06:19:05;;;;;;;4.93;1.80;;;;;;;-145.18;100.00;46681.88;6147952;23;20335;-74
2023/03/23 06:21:31;;;;;;;11.77;1.97;;;;;;;-145.18;100.00;46660.41;6150903;23;20526;-75
2023/03/23 06:23:58;;;;;;;8.83;1.53;;;;;;;-145.18;100.00;46681.88;6151665;23;20010;-75
2023/03/23 06:26:28;;;;;;;7.43;1.73;;;;;;;-145.18;100.00;46681.88;6151846;23;20041;-75
2023/03/23 06:28:54;;;;;;;9.87;2.03;;;;;;;-145.18;100.00;46660.41;6151381;23;20434;-75
2023/03/23 06:31:20;;;;;;;8.13;1.80;;;;;;;-145.18;100.00;46644.78;6151930;23;20017;-75
2023/03/23 06:33:47;;;;;;;11.20;1.90;;;;;;;-145.18;100.00;46652.59;6151608;23;20327;-75
2023/03/23 06:36:13;;;;;;;9.77;2.20;;;;;;;-145.18;100.00;46660.41;6151744;23;20404;-75
2023/03/23 06:38:38;;;;;;;9.60;2.70;;;;;;;-145.18;100.00;46662.34;6152066;23;20037;-75
2023/03/23 06:41:04;;;;;;;15.43;2.13;;;;;;;-145.18;100.00;46666.25;6151419;23;20068;-75
2023/03/23 06:43:30;;;;;;;10.97;2.00;;;;;;;-145.18;100.00;46670.16;6151613;23;20005;-75
2023/03/23 06:45:59;;;;;;;11.13;2.10;;;;;;;-145.18;100.00;46683.84;6150982;23;20057;-75
2023/03/23 06:48:25;;;;;;;17.63;2.97;;;;;;;-145.18;100.00;46693.59;6150581;23;20014;-75
2023/03/23 06:50:50;;;;;;;9.33;1.87;;;;;;;-145.18;100.00;46701.41;6153007;23;20014;-75
2023/03/23 06:53:16;;;;;;;17.50;2.27;;;;;;;-145.18;100.00;46699.47;6152918;23;20017;-75
2023/03/23 06:55:43;;;;;;;10.50;1.67;;;;;;;-145.18;100.00;46705.31;6153642;23;20439;-75
2023/03/23 06:58:10;;;;;;;12.60;2.40;;;;;;;-145.18;100.00;46717.03;6152462;23;20459;-74
2023/03/23 07:00:35;;;;;;;12.47;2.70;;;;;;;-145.18;100.00;46720.94;6153117;23;20009;-75
2023/03/23 07:03:01;;;;;;;15.10;3.00;;;;;;;-145.18;100.00;46728.75;6152547;23;20076;-77
2023/03/23 07:05:26;;;;;;;21.57;3.13;;;;;;;-145.18;100.00;46732.66;6151805;23;20010;-77
2023/03/23 07:07:52;;;;;;;20.10;2.93;;;;;;;-145.18;100.00;46728.75;6153024;23;20711;-75
2023/03/23 07:10:17;;;;;;;11.50;2.70;;;;;;;-145.18;100.00;46736.56;6152680;23;20559;-76
2023/03/23 07:12:42;;;;;;;15.97;2.83;;;;;;;-145.18;100.00;46734.63;6150673;23;20010;-74
2023/03/23 07:15:10;;;;;;;7.77;2.17;;;;;;;-145.18;100.00;46734.63;6151379;23;20053;-74
2023/03/23 07:17:37;;;;;;;14.90;2.70;;;;;;;-145.18;100.00;46722.91;6152590;23;20056;-74
2023/03/23 07:20:04;;;;;;;8.03;1.87;;;;;;;-145.18;100.00;46719.00;6151468;23;20017;-74
2023/03/23 07:22:30;;;;;;;9.23;1.87;;;;;;;-145.18;100.00;46724.84;6152861;23;20002;-74
2023/03/23 07:24:56;;;;;;;9.50;2.30;;;;;;;-145.18;100.00;46720.94;6152070;23;20013;-74
2023/03/23 07:27:21;;;;;;;12.53;2.63;;;;;;;-145.18;100.00;46722.91;6150838;23;20017;-74
2023/03/23 07:29:46;;;;;;;11.13;2.40;;;;;;;-145.18;100.00;46722.91;6153134;23;20032;-74
2023/03/23 07:32:12;;;;;;;11.47;2.47;;;;;;;-145.18;100.00;46720.94;6153046;23;20017;-73
2023/03/23 07:34:38;;;;;;;8.00;2.47;;;;;;;-145.18;100.00;46717.03;6153013;23;20060;-74
2023/03/23 07:37:04;;;;;;;7.23;2.03;;;;;;;-145.18;100.00;46719.00;6151372;23;20007;-74
2023/03/23 07:39:29;;;;;;;14.03;2.43;;;;;;;-145.18;100.00;46717.03;6150227;23;20018;-74
2023/03/23 07:41:55;;;;;;;7.43;1.90;;;;;;;-145.18;100.00;46719.00;6150353;23;20052;-73
2023/03/23 07:44:21;;;;;;;10.17;1.90;;;;;;;-145.18;100.00;46717.03;6150287;23;20443;-74
2023/03/23 07:46:47;;;;;;;9.67;1.83;;;;;;;-145.18;100.00;46717.03;6152764;23;20044;-74
2023/03/23 07:49:13;;;;;;;13.10;1.83;;;;;;;-145.18;100.00;46717.03;6152627;23;20014;-74
2023/03/23 07:51:39;;;;;;;6.43;2.27;;;;;;;-145.18;100.00;46715.09;6148867;23;20017;-73
2023/03/23 07:54:07;;;;;;;11.83;2.27;;;;;;;-145.18;100.00;46715.09;6152830;23;20142;-73
2023/03/23 07:56:33;;;;;;;8.93;2.07;;;;;;;-145.18;100.00;46707.28;6153066;23;20010;-73
2023/03/23 07:59:00;;;;;;;15.80;2.53;;;;;;;-145.18;100.00;46713.13;6152617;23;20006;-74
2023/03/23 08:01:26;;;;;;;6.77;1.87;;;;;;;-145.18;100.00;46709.22;6151014;23;20014;-74
2023/03/23 08:03:54;;;;;;;9.07;1.80;;;;;;;-145.18;100.00;46713.13;6152395;23;20045;-74
2023/03/23 08:06:21;;;;;;;12.47;1.93;;;;;;;-145.18;100.00;46713.13;6152819;23;20040;-73
2023/03/23 08:08:46;;;;;;;10.60;2.30;;;;;;;-145.18;100.00;46707.28;6152127;23;20007;-73
2023/03/23 08:11:13;;;;;;;11.93;2.13;;;;;;;-145.18;100.00;46713.13;6152476;23;20017;-73
2023/03/23 08:13:39;;;;;;;8.67;1.80;;;;;;;-145.18;100.00;46711.19;6152468;23;20024;-73
2023/03/23 08:16:04;;;;;;;7.47;1.80;;;;;;;-145.18;100.00;46709.22;6152422;23;20442;-73
2023/03/23 08:18:31;;;;;;;9.57;1.87;;;;;;;-145.18;100.00;46713.13;6152579;23;20443;-73
2023/03/23 08:20:57;;;;;;;8.17;2.03;;;;;;;-145.18;100.00;46717.03;6152768;23;20454;-73
2023/03/23 08:23:23;;;;;;;15.63;1.70;;;;;;;-145.18;100.00;46711.19;6151898;23;20378;-73
2023/03/23 08:25:48;;;;;;;6.37;1.70;;;;;;;-145.18;100.00;46713.13;6151234;23;20017;-73
2023/03/23 08:28:14;;;;;;;5.67;1.70;;;;;;;-145.18;100.00;46703.38;6152100;23;20009;-73
2023/03/23 08:30:40;;;;;;;7.53;1.80;;;;;;;-145.18;100.00;46705.31;6152117;23;20018;-73
2023/03/23 08:33:07;;;;;;;12.17;2.30;;;;;;;-145.18;100.00;46691.66;6152298;23;20005;-73
2023/03/23 08:35:33;;;;;;;9.47;2.07;;;;;;;-145.18;100.00;46672.13;6152564;23;20006;-73
2023/03/23 08:37:58;;;;;;;9.00;1.67;;;;;;;-145.18;100.00;46635.00;6152535;23;20426;-73
2023/03/23 08:40:26;;;;;;;8.47;1.57;;;;;;;-145.18;100.00;46625.22;6151966;23;20041;-73
2023/03/23 08:42:52;;;;;;;5.30;1.57;;;;;;;-145.18;100.00;46592.03;6152526;23;20021;-73
2023/03/23 08:45:21;;;;;;;9.17;1.63;;;;;;;-145.18;100.00;46588.13;6152060;23;20033;-73
2023/03/23 08:47:51;;;;;;;8.97;1.53;;;;;;;-145.18;100.00;46588.13;6152353;23;20033;-73
2023/03/23 08:50:19;;;;;;;8.53;1.90;;;;;;;-145.18;100.00;46593.97;6152188;23;20231;-73
2023/03/23 08:52:45;;;;;;;6.73;1.63;;;;;;;-145.18;100.00;46599.84;6152319;23;20039;-73
2023/03/23 08:55:12;;;;;;;8.10;1.90;;;;;;;-145.18;100.00;46597.88;6151453;23;20474;-73
2023/03/23 08:57:38;;;;;;;11.07;2.17;;;;;;;-145.18;100.00;46595.94;6152111;23;20001;-73
2023/03/23 09:00:14;;;;;;;14.37;1.97;;;;;;;-145.18;100.00;46599.84;6151970;23;20002;-74
2023/03/23 09:02:42;;;;;;;10.53;2.23;;;;;;;-145.18;100.00;46603.75;6152206;23;20344;-73
2023/03/23 09:05:10;;;;;;;15.27;2.37;;;;;;;-145.18;100.00;46617.41;6151948;23;20339;-73
2023/03/23 09:07:37;;;;;;;5.60;1.67;;;;;;;-145.18;100.00;46617.41;6152311;23;20013;-73
2023/03/23 09:10:03;;;;;;;12.30;2.00;;;;;;;-145.18;100.00;46621.31;6151802;23;20032;-73
2023/03/23 09:12:29;;;;;;;7.93;1.80;;;;;;;-145.18;100.00;46627.19;6150586;23;20076;-73
2023/03/23 09:14:55;;;;;;;11.50;2.70;;;;;;;-145.18;100.00;46642.81;6151966;23;20089;-74
2023/03/23 09:17:20;;;;;;;11.57;2.53;;;;;;;-145.18;100.00;46636.94;6151144;23;20033;-73
2023/03/23 09:19:45;;;;;;;11.63;1.70;;;;;;;-145.18;100.00;46640.88;6151771;23;20072;-73
2023/03/23 09:22:11;;;;;;;8.40;1.93;;;;;;;-145.18;100.00;46638.91;6150341;23;20056;-75
2023/03/23 09:24:37;;;;;;;10.83;2.40;;;;;;;-145.18;100.00;46636.94;6151816;23;20089;-73
2023/03/23 09:27:03;;;;;;;12.43;2.30;;;;;;;-145.18;100.00;46636.94;6151999;23;20001;-73
2023/03/23 09:29:28;;;;;;;12.43;2.27;;;;;;;-145.18;100.00;46636.94;6151632;23;20084;-73
2023/03/23 09:31:55;;;;;;;8.67;1.90;;;;;;;-145.18;100.00;46644.78;6152125;23;20521;-73
2023/03/23 09:34:22;;;;;;;14.97;2.10;;;;;;;-145.18;100.00;46658.44;6151478;23;20465;-75
2023/03/23 09:36:48;;;;;;;10.07;2.50;;;;;;;-145.18;100.00;46668.22;6151959;23;20006;-75
2023/03/23 09:39:13;;;;;;;11.23;2.13;;;;;;;-145.18;100.00;46683.84;6151561;23;20374;-75
2023/03/23 09:41:55;;;;;;;10.07;2.00;;;;;;;-145.18;100.00;46670.16;6152030;23;20013;-75
2023/03/23 09:44:40;;;;;;;19.47;2.77;;;;;;;-145.18;100.00;46699.47;6152056;23;20013;-75
2023/03/23 09:47:36;;;;;;;14.20;2.77;;;;;;;-145.18;100.00;46703.38;6151882;23;20013;-75
2023/03/23 09:50:04;;;;;;;11.93;2.42;;;;;;;-145.18;100.00;46693.59;6151709;23;20355;-75
2023/03/23 09:52:52;;;;;;;12.53;2.87;;;;;;;-145.18;100.00;46709.22;6152172;23;20427;-75
2023/03/23 09:55:20;;;;;;;14.87;3.30;;;;;;;-145.18;100.00;46748.28;6151596;23;20072;-75
2023/03/23 09:58:01;;;;;;;11.97;2.40;;;;;;;-145.18;100.00;46748.28;6151802;23;20005;-73
2023/03/23 10:00:35;;;;;;;13.77;2.93;;;;;;;-145.18;100.00;46754.16;6151454;23;20084;-74
2023/03/23 10:03:19;;;;;;;18.30;3.43;;;;;;;-145.18;100.00;46750.25;6151690;23;20316;-76
2023/03/23 10:05:50;;;;;;;14.67;2.93;;;;;;;-145.18;100.00;46777.59;6152113;23;20425;-73
2023/03/23 10:08:29;;;;;;;12.97;2.80;;;;;;;-145.18;100.00;46779.56;6151706;23;20482;-74
2023/03/23 10:11:26;;;;;;;15.40;2.40;;;;;;;-145.18;100.00;46763.91;6151803;23;20012;-73
2023/03/23 10:14:10;;;;;;;;;;;;;;;-145.18;100.00;46799.09;6152120;23;20040;-74
2023/03/23 10:16:49;;;;;;;17.93;2.30;;;;;;;-145.18;100.00;46885.03;6152113;23;19908;-74
2023/03/23 10:19:37;;;;;;;14.23;2.40;;;;;;;-145.18;100.00;47002.25;6151592;23;20006;-74
2023/03/23 10:22:10;;;;;;;9.03;1.70;;;;;;;-145.18;100.00;46939.72;6151844;23;20081;-74
2023/03/23 10:24:43;;;;;;;12.23;2.17;;;;;;;-145.18;100.00;46980.75;6153517;23;20029;-74
2023/03/23 10:27:35;;;;;;;21.73;2.90;;;;;;;-145.18;100.00;47066.72;6152768;23;20057;-73
2023/03/23 10:30:33;;;;;;;13.37;2.57;;;;;;;-145.18;100.00;47047.19;6153366;23;20009;-74
2023/03/23 10:33:04;;;;;;;12.10;2.63;;;;;;;-145.18;100.00;47006.16;6153752;23;20081;-74
2023/03/23 10:35:45;;;;;;;10.50;2.07;;;;;;;-145.18;100.00;46904.56;6153239;23;20080;-75
2023/03/23 10:38:16;;;;;;;8.73;1.90;;;;;;;-145.18;100.00;46857.69;6153713;23;20032;-74
2023/03/23 10:40:56;;;;;;;8.30;2.00;;;;;;;-145.18;100.00;47070.63;6153400;23;20009;-75
2023/03/23 10:43:23;;;;;;;9.77;2.40;;;;;;;-145.18;100.00;47133.13;6152850;23;20418;-74
2023/03/23 10:45:56;;;;;;;12.90;1.93;;;;;;;-145.18;100.00;47471.13;6152970;23;20016;-75
2023/03/23 10:48:30;;;;;;;14.87;2.37;;;;;;;-145.18;100.00;47434.00;6153491;23;20006;-75
2023/03/23 10:51:00;;;;;;;10.80;1.70;;;;;;;-145.18;100.00;47424.22;6151820;23;20009;-74
2023/03/23 10:53:35;;;;;;;12.97;2.57;;;;;;;-145.18;100.00;47400.78;6153467;23;20005;-75
2023/03/23 10:56:01;;;;;;;14.88;2.40;;;;;;;-145.18;100.00;47482.84;6153378;23;20473;-75
2023/03/23 10:58:33;;;;;;;10.40;1.77;;;;;;;-145.18;100.00;47478.94;6153028;23;20443;-74
2023/03/23 11:01:00;;;;;;;15.97;2.83;;;;;;;-145.18;100.00;47422.28;6153239;23;20021;-75
2023/03/23 11:03:32;;;;;;;16.77;2.50;;;;;;;-145.18;100.00;47471.13;6151359;23;20422;-75
2023/03/23 11:06:07;;;;;;;11.00;3.23;;;;;;;-145.18;100.00;47496.50;6153395;23;20049;-74
2023/03/23 11:08:36;;;;;;;10.97;1.83;;;;;;;-145.18;100.00;47453.53;6153275;23;20005;-75
2023/03/23 11:11:21;;;;;;;12.70;2.50;;;;;;;-145.18;100.00;47447.66;6153173;23;20402;-75
2023/03/23 11:13:51;;;;;;;11.00;2.77;;;;;;;-145.18;100.00;47387.09;6153362;23;20036;-75
2023/03/23 11:16:24;;;;;;;12.27;2.33;;;;;;;-145.18;100.00;47336.31;6152189;23;20077;-76